sensor_id;sensor_type;location;lat;lon;timestamp;pressure;altitude;pressure_sealevel;temperature;humidity
2000;BME280;1001;48.87406500;9.59633600;2023-02-23T00:00:14;94730.75;;;9.13;100.00
2000;BME280;1001;48.87406500;9.59633600;2023-02-23T00:02:46;94730.19;;;9.11;100.00
2000;BME280;1001;48.87406500;9.59633600;2023-02-23T00:05:13;94727.00;;;9.09;100.00
2000;BME280;1001;48.87406500;9.59633600;2023-02-23T00:11:36;94727.78;;;9.09;100.00
2000;BME280;1001;48.87406500;9.59633600;2023-02-23T00:14:02;94727.09;;;9.14;100.00
2000;BME280;1001;48.87406500;9.59633600;2023-02-23T00:19:53;94727.34;;;9.24;100.00
2000;BME280;1001;48.87406500;9.59633600;2023-02-23T00:22:20;94720.19;;;9.19;100.00
2000;BME280;1001;48.87406500;9.59633600;2023-02-23T00:24:46;94720.75;;;9.21;100.00
2000;BME280;1001;48.87406500;9.59633600;2023-02-23T00:27:14;94720.06;;;9.26;100.00
2000;BME280;1001;48.87406500;9.59633600;2023-02-23T00:29:44;94720.75;;;9.21;100.00
2000;BME280;1001;48.87406500;9.59633600;2023-02-23T00:32:13;94717.13;;;9.22;100.00
2000;BME280;1001;48.87406500;9.59633600;2023-02-23T00:34:43;94716.09;;;9.23;100.00
2000;BME280;1001;48.87406500;9.59633600;2023-02-23T00:37:14;94719.84;;;9.27;100.00
2000;BME280;1001;48.87406500;9.59633600;2023-02-23T00:39:41;94722.13;;;9.24;100.00
2000;BME280;1001;48.87406500;9.59633600;2023-02-23T00:42:08;94713.84;;;9.27;100.00
2000;BME280;1001;48.87406500;9.59633600;2023-02-23T00:44:35;94722.78;;;9.31;100.00
2000;BME280;1001;48.87406500;9.59633600;2023-02-23T00:47:04;94722.34;;;9.34;100.00
2000;BME280;1001;48.87406500;9.59633600;2023-02-23T00:49:32;94725.59;;;9.41;100.00
2000;BME280;1001;48.87406500;9.59633600;2023-02-23T00:51:59;94727.66;;;9.39;100.00
2000;BME280;1001;48.87406500;9.59633600;2023-02-23T00:54:27;94716.28;;;9.45;100.00
2000;BME280;1001;48.87406500;9.59633600;2023-02-23T00:56:53;94718.66;;;9.46;100.00
2000;BME280;1001;48.87406500;9.59633600;2023-02-23T00:59:20;94713.91;;;9.43;100.00
2000;BME280;1001;48.87406500;9.59633600;2023-02-23T01:01:47;94715.72;;;9.43;100.00
2000;BME280;1001;48.87406500;9.59633600;2023-02-23T01:04:13;94715.03;;;9.47;100.00
2000;BME280;1001;48.87406500;9.59633600;2023-02-23T01:06:40;94719.31;;;9.53;100.00
2000;BME280;1001;48.87406500;9.59633600;2023-02-23T01:09:08;94713.88;;;9.55;100.00
2000;BME280;1001;48.87406500;9.59633600;2023-02-23T01:11:37;94716.81;;;9.58;100.00
2000;BME280;1001;48.87406500;9.59633600;2023-02-23T01:14:05;94712.53;;;9.52;100.00
2000;BME280;1001;48.87406500;9.59633600;2023-02-23T01:16:33;94718.75;;;9.51;100.00
2000;BME280;1001;48.87406500;9.59633600;2023-02-23T01:19:03;94710.50;;;9.43;100.00
2000;BME280;1001;48.87406500;9.59633600;2023-02-23T01:21:32;94710.81;;;9.46;100.00
2000;BME280;1001;48.87406500;9.59633600;2023-02-23T01:23:59;94715.59;;;9.49;100.00
2000;BME280;1001;48.87406500;9.59633600;2023-02-23T01:26:29;94708.81;;;9.48;100.00
2000;BME280;1001;48.87406500;9.59633600;2023-02-23T01:28:58;94714.34;;;9.52;100.00
2000;BME280;1001;48.87406500;9.59633600;2023-02-23T01:31:27;94708.88;;;9.53;100.00
2000;BME280;1001;48.87406500;9.59633600;2023-02-23T01:33:55;94705.34;;;9.59;100.00
2000;BME280;1001;48.87406500;9.59633600;2023-02-23T01:36:21;94700.59;;;9.56;100.00
2000;BME280;1001;48.87406500;9.59633600;2023-02-23T01:38:49;94701.34;;;9.69;100.00
2000;BME280;1001;48.87406500;9.59633600;2023-02-23T01:41:19;94701.44;;;9.74;100.00
2000;BME280;1001;48.87406500;9.59633600;2023-02-23T01:43:57;94714.59;;;9.79;100.00
2000;BME280;1001;48.87406500;9.59633600;2023-02-23T01:46:25;94705.66;;;9.75;100.00
2000;BME280;1001;48.87406500;9.59633600;2023-02-23T01:48:54;94708.38;;;9.68;100.00
2000;BME280;1001;48.87406500;9.59633600;2023-02-23T01:51:23;94700.22;;;9.65;100.00
2000;BME280;1001;48.87406500;9.59633600;2023-02-23T01:53:55;94710.53;;;9.71;100.00
2000;BME280;1001;48.87406500;9.59633600;2023-02-23T01:56:26;94711.66;;;9.75;100.00
2000;BME280;1001;48.87406500;9.59633600;2023-02-23T01:58:58;94706.91;;;9.72;100.00
2000;BME280;1001;48.87406500;9.59633600;2023-02-23T02:01:28;94703.84;;;9.64;100.00
2000;BME280;1001;48.87406500;9.59633600;2023-02-23T02:03:57;94703.53;;;9.60;100.00
2000;BME280;1001;48.87406500;9.59633600;2023-02-23T02:06:25;94698.88;;;9.62;100.00
2000;BME280;1001;48.87406500;9.59633600;2023-02-23T02:08:57;94700.84;;;9.55;100.00
2000;BME280;1001;48.87406500;9.59633600;2023-02-23T02:11:30;94690.75;;;9.47;100.00
2000;BME280;1001;48.87406500;9.59633600;2023-02-23T02:14:03;94688.84;;;9.42;100.00
2000;BME280;1001;48.87406500;9.59633600;2023-02-23T02:16:54;94687.16;;;9.36;100.00
2000;BME280;1001;48.87406500;9.59633600;2023-02-23T02:23:31;94688.63;;;9.32;100.00
2000;BME280;1001;48.87406500;9.59633600;2023-02-23T02:26:16;94684.06;;;9.39;100.00
2000;BME280;1001;48.87406500;9.59633600;2023-02-23T02:38:05;94676.97;;;9.23;100.00
2000;BME280;1001;48.87406500;9.59633600;2023-02-23T02:40:41;94682.19;;;9.23;100.00
2000;BME280;1001;48.87406500;9.59633600;2023-02-23T02:43:22;94678.56;;;9.24;100.00
2000;BME280;1001;48.87406500;9.59633600;2023-02-23T02:45:54;94686.03;;;9.21;100.00
2000;BME280;1001;48.87406500;9.59633600;2023-02-23T02:48:29;94678.59;;;9.13;100.00
2000;BME280;1001;48.87406500;9.59633600;2023-02-23T02:51:04;94684.03;;;9.11;100.00
2000;BME280;1001;48.87406500;9.59633600;2023-02-23T02:53:39;94680.06;;;9.09;100.00
2000;BME280;1001;48.87406500;9.59633600;2023-02-23T02:56:08;94684.50;;;9.08;100.00
2000;BME280;1001;48.87406500;9.59633600;2023-02-23T02:58:36;94678.94;;;9.05;100.00
2000;BME280;1001;48.87406500;9.59633600;2023-02-23T03:01:12;94674.09;;;8.97;100.00
2000;BME280;1001;48.87406500;9.59633600;2023-02-23T03:03:58;94677.69;;;8.96;100.00
2000;BME280;1001;48.87406500;9.59633600;2023-02-23T03:06:45;94672.94;;;8.93;100.00
2000;BME280;1001;48.87406500;9.59633600;2023-02-23T03:09:37;94677.16;;;8.82;100.00
2000;BME280;1001;48.87406500;9.59633600;2023-02-23T03:12:32;94674.09;;;8.73;100.00
2000;BME280;1001;48.87406500;9.59633600;2023-02-23T03:15:31;94679.78;;;8.70;100.00
2000;BME280;1001;48.87406500;9.59633600;2023-02-23T03:18:28;94677.59;;;8.67;100.00
2000;BME280;1001;48.87406500;9.59633600;2023-02-23T03:21:24;94674.09;;;8.62;100.00
2000;BME280;1001;48.87406500;9.59633600;2023-02-23T03:24:16;94674.09;;;8.50;100.00
2000;BME280;1001;48.87406500;9.59633600;2023-02-23T03:27:12;94666.25;;;8.50;100.00
2000;BME280;1001;48.87406500;9.59633600;2023-02-23T03:30:02;94669.00;;;8.55;100.00
2000;BME280;1001;48.87406500;9.59633600;2023-02-23T03:32:51;94678.63;;;8.43;100.00
2000;BME280;1001;48.87406500;9.59633600;2023-02-23T03:35:42;94669.31;;;8.47;100.00
2000;BME280;1001;48.87406500;9.59633600;2023-02-23T03:38:32;94673.09;;;8.51;100.00
2000;BME280;1001;48.87406500;9.59633600;2023-02-23T03:41:19;94672.97;;;8.46;100.00
2000;BME280;1001;48.87406500;9.59633600;2023-02-23T03:44:10;94671.59;;;8.44;100.00
2000;BME280;1001;48.87406500;9.59633600;2023-02-23T03:46:57;94670.78;;;8.43;100.00
2000;BME280;1001;48.87406500;9.59633600;2023-02-23T03:49:44;94669.00;;;8.44;100.00
2000;BME280;1001;48.87406500;9.59633600;2023-02-23T03:52:33;94670.56;;;8.45;100.00
2000;BME280;1001;48.87406500;9.59633600;2023-02-23T03:55:22;94671.16;;;8.47;100.00
2000;BME280;1001;48.87406500;9.59633600;2023-02-23T03:58:11;94671.34;;;8.45;100.00
2000;BME280;1001;48.87406500;9.59633600;2023-02-23T04:01:00;94668.56;;;8.47;100.00
2000;BME280;1001;48.87406500;9.59633600;2023-02-23T04:03:47;94672.72;;;8.48;100.00
2000;BME280;1001;48.87406500;9.59633600;2023-02-23T04:06:37;94675.13;;;8.49;100.00
2000;BME280;1001;48.87406500;9.59633600;2023-02-23T04:09:23;94674.88;;;8.51;100.00
2000;BME280;1001;48.87406500;9.59633600;2023-02-23T04:12:12;94673.63;;;8.53;100.00
2000;BME280;1001;48.87406500;9.59633600;2023-02-23T04:15:02;94668.44;;;8.42;100.00
2000;BME280;1001;48.87406500;9.59633600;2023-02-23T04:17:30;94675.22;;;8.43;100.00
2000;BME280;1001;48.87406500;9.59633600;2023-02-23T04:20:02;94672.72;;;8.48;100.00
2000;BME280;1001;48.87406500;9.59633600;2023-02-23T04:22:31;94665.72;;;8.48;100.00
2000;BME280;1001;48.87406500;9.59633600;2023-02-23T04:24:59;94668.56;;;8.47;100.00
2000;BME280;1001;48.87406500;9.59633600;2023-02-23T04:27:26;94671.91;;;8.47;100.00
2000;BME280;1001;48.87406500;9.59633600;2023-02-23T04:29:52;94671.91;;;8.47;100.00
2000;BME280;1001;48.87406500;9.59633600;2023-02-23T04:32:19;94670.00;;;8.43;100.00
2000;BME280;1001;48.87406500;9.59633600;2023-02-23T04:34:47;94674.53;;;8.47;100.00
2000;BME280;1001;48.87406500;9.59633600;2023-02-23T04:37:14;94674.88;;;8.51;100.00
2000;BME280;1001;48.87406500;9.59633600;2023-02-23T04:39:40;94672.50;;;8.49;100.00
2000;BME280;1001;48.87406500;9.59633600;2023-02-23T04:42:12;94678.63;;;8.55;100.00
2000;BME280;1001;48.87406500;9.59633600;2023-02-23T04:44:39;94678.28;;;8.51;100.00
2000;BME280;1001;48.87406500;9.59633600;2023-02-23T04:47:05;94681.69;;;8.52;100.00
2000;BME280;1001;48.87406500;9.59633600;2023-02-23T04:49:32;94681.22;;;8.55;100.00
2000;BME280;1001;48.87406500;9.59633600;2023-02-23T04:52:00;94678.28;;;8.51;100.00
2000;BME280;1001;48.87406500;9.59633600;2023-02-23T04:54:27;94679.53;;;8.49;100.00
2000;BME280;1001;48.87406500;9.59633600;2023-02-23T04:56:53;94676.47;;;8.63;100.00
2000;BME280;1001;48.87406500;9.59633600;2023-02-23T04:59:20;94671.38;;;8.57;100.00
2000;BME280;1001;48.87406500;9.59633600;2023-02-23T05:01:47;94678.50;;;8.61;100.00
2000;BME280;1001;48.87406500;9.59633600;2023-02-23T05:04:13;94682.69;;;8.62;100.00
2000;BME280;1001;48.87406500;9.59633600;2023-02-23T05:06:40;94686.56;;;8.60;100.00
2000;BME280;1001;48.87406500;9.59633600;2023-02-23T05:09:09;94683.25;;;8.64;100.00
2000;BME280;1001;48.87406500;9.59633600;2023-02-23T05:11:35;94680.09;;;8.62;100.00
2000;BME280;1001;48.87406500;9.59633600;2023-02-23T05:14:02;94674.53;;;8.47;100.00
2000;BME280;1001;48.87406500;9.59633600;2023-02-23T05:16:29;94676.38;;;8.47;100.00
2000;BME280;1001;48.87406500;9.59633600;2023-02-23T05:18:55;94673.28;;;8.38;100.00
2000;BME280;1001;48.87406500;9.59633600;2023-02-23T05:21:22;94681.66;;;8.40;100.00
2000;BME280;1001;48.87406500;9.59633600;2023-02-23T05:23:49;94672.16;;;8.34;100.00
2000;BME280;1001;48.87406500;9.59633600;2023-02-23T05:26:17;94675.44;;;8.30;100.00
2000;BME280;1001;48.87406500;9.59633600;2023-02-23T05:28:44;94672.59;;;8.31;100.00
2000;BME280;1001;48.87406500;9.59633600;2023-02-23T05:31:10;94676.56;;;8.34;100.00
2000;BME280;1001;48.87406500;9.59633600;2023-02-23T05:33:37;94672.47;;;8.38;100.00
2000;BME280;1001;48.87406500;9.59633600;2023-02-23T05:36:08;94675.44;;;8.41;100.00
2000;BME280;1001;48.87406500;9.59633600;2023-02-23T05:38:35;94674.75;;;8.46;100.00
2000;BME280;1001;48.87406500;9.59633600;2023-02-23T05:41:04;94678.50;;;8.50;100.00
2000;BME280;1001;48.87406500;9.59633600;2023-02-23T05:43:32;94682.94;;;8.49;100.00
2000;BME280;1001;48.87406500;9.59633600;2023-02-23T05:45:58;94682.94;;;8.49;100.00
2000;BME280;1001;48.87406500;9.59633600;2023-02-23T05:48:25;94680.78;;;8.58;100.00
2000;BME280;1001;48.87406500;9.59633600;2023-02-23T05:50:52;94678.50;;;8.61;100.00
2000;BME280;1001;48.87406500;9.59633600;2023-02-23T05:53:19;94679.09;;;8.63;100.00
2000;BME280;1001;48.87406500;9.59633600;2023-02-23T05:55:45;94679.09;;;8.63;100.00
2000;BME280;1001;48.87406500;9.59633600;2023-02-23T05:58:12;94679.66;;;8.65;100.00
2000;BME280;1001;48.87406500;9.59633600;2023-02-23T06:00:40;94680.22;;;8.67;100.00
2000;BME280;1001;48.87406500;9.59633600;2023-02-23T06:03:06;94680.44;;;8.66;100.00
2000;BME280;1001;48.87406500;9.59633600;2023-02-23T06:05:33;94679.53;;;8.60;100.00
2000;BME280;1001;48.87406500;9.59633600;2023-02-23T06:07:59;94689.28;;;8.65;100.00
2000;BME280;1001;48.87406500;9.59633600;2023-02-23T06:10:26;94681.69;;;8.63;100.00
2000;BME280;1001;48.87406500;9.59633600;2023-02-23T06:12:53;94688.34;;;8.59;100.00
2000;BME280;1001;48.87406500;9.59633600;2023-02-23T06:15:20;94696.75;;;8.61;100.00
2000;BME280;1001;48.87406500;9.59633600;2023-02-23T06:17:48;94693.38;;;8.61;100.00
2000;BME280;1001;48.87406500;9.59633600;2023-02-23T06:20:14;94693.25;;;8.67;100.00
2000;BME280;1001;48.87406500;9.59633600;2023-02-23T06:22:41;94698.69;;;8.66;100.00
2000;BME280;1001;48.87406500;9.59633600;2023-02-23T06:25:08;94703.66;;;8.67;100.00
2000;BME280;1001;48.87406500;9.59633600;2023-02-23T06:27:37;94699.47;;;8.66;100.00
2000;BME280;1001;48.87406500;9.59633600;2023-02-23T06:30:04;94702.63;;;8.68;100.00
2000;BME280;1001;48.87406500;9.59633600;2023-02-23T06:32:31;94705.47;;;8.67;100.00
2000;BME280;1001;48.87406500;9.59633600;2023-02-23T06:34:59;94700.63;;;8.70;100.00
2000;BME280;1001;48.87406500;9.59633600;2023-02-23T06:37:25;94710.94;;;8.65;100.00
2000;BME280;1001;48.87406500;9.59633600;2023-02-23T06:39:52;94711.81;;;8.71;100.00
2000;BME280;1001;48.87406500;9.59633600;2023-02-23T06:42:19;94712.84;;;8.70;100.00
2000;BME280;1001;48.87406500;9.59633600;2023-02-23T06:44:45;94709.00;;;8.72;100.00
2000;BME280;1001;48.87406500;9.59633600;2023-02-23T06:47:12;94713.28;;;8.67;100.00
2000;BME280;1001;48.87406500;9.59633600;2023-02-23T06:49:38;94713.19;;;8.73;100.00
2000;BME280;1001;48.87406500;9.59633600;2023-02-23T06:52:07;94716.34;;;8.75;100.00
2000;BME280;1001;48.87406500;9.59633600;2023-02-23T06:54:33;94721.34;;;8.77;100.00
2000;BME280;1001;48.87406500;9.59633600;2023-02-23T06:57:02;94720.00;;;8.74;100.00
2000;BME280;1001;48.87406500;9.59633600;2023-02-23T06:59:28;94717.16;;;8.76;100.00
2000;BME280;1001;48.87406500;9.59633600;2023-02-23T07:01:55;94718.41;;;8.73;100.00
2000;BME280;1001;48.87406500;9.59633600;2023-02-23T07:04:22;94723.03;;;8.71;100.00
2000;BME280;1001;48.87406500;9.59633600;2023-02-23T07:06:50;94729.97;;;8.77;100.00
2000;BME280;1001;48.87406500;9.59633600;2023-02-23T07:09:17;94731.66;;;8.83;100.00
2000;BME280;1001;48.87406500;9.59633600;2023-02-23T07:11:44;94727.25;;;8.84;100.00
2000;BME280;1001;48.87406500;9.59633600;2023-02-23T07:14:11;94729.50;;;8.80;100.00
2000;BME280;1001;48.87406500;9.59633600;2023-02-23T07:16:37;94732.69;;;8.82;100.00
2000;BME280;1001;48.87406500;9.59633600;2023-02-23T07:19:04;94731.66;;;8.83;100.00
2000;BME280;1001;48.87406500;9.59633600;2023-02-23T07:21:32;94730.19;;;8.87;100.00
2000;BME280;1001;48.87406500;9.59633600;2023-02-23T07:23:59;94739.59;;;8.88;100.00
2000;BME280;1001;48.87406500;9.59633600;2023-02-23T07:26:29;94735.31;;;8.94;100.00
2000;BME280;1001;48.87406500;9.59633600;2023-02-23T07:28:55;94733.38;;;9.01;100.00
2000;BME280;1001;48.87406500;9.59633600;2023-02-23T07:31:22;94742.88;;;9.07;100.00
2000;BME280;1001;48.87406500;9.59633600;2023-02-23T07:33:48;94740.03;;;9.09;100.00
2000;BME280;1001;48.87406500;9.59633600;2023-02-23T07:36:15;94739.13;;;9.15;100.00
2000;BME280;1001;48.87406500;9.59633600;2023-02-23T07:38:41;94742.75;;;9.14;100.00
2000;BME280;1001;48.87406500;9.59633600;2023-02-23T07:41:08;94740.81;;;9.21;100.00
2000;BME280;1001;48.87406500;9.59633600;2023-02-23T07:43:36;94746.28;;;9.19;100.00
2000;BME280;1001;48.87406500;9.59633600;2023-02-23T07:46:03;94747.19;;;9.25;100.00
2000;BME280;1001;48.87406500;9.59633600;2023-02-23T07:48:29;94744.25;;;9.10;100.00
2000;BME280;1001;48.87406500;9.59633600;2023-02-23T07:50:56;94739.94;;;9.27;100.00
2000;BME280;1001;48.87406500;9.59633600;2023-02-23T07:53:23;94748.06;;;9.30;100.00
2000;BME280;1001;48.87406500;9.59633600;2023-02-23T07:55:54;94747.63;;;9.22;100.00
2000;BME280;1001;48.87406500;9.59633600;2023-02-23T07:58:21;94757.50;;;9.31;100.00
2000;BME280;1001;48.87406500;9.59633600;2023-02-23T08:00:49;94752.59;;;9.35;100.00
2000;BME280;1001;48.87406500;9.59633600;2023-02-23T08:03:16;94747.59;;;9.45;100.00
2000;BME280;1001;48.87406500;9.59633600;2023-02-23T08:05:42;94753.84;;;9.55;100.00
2000;BME280;1001;48.87406500;9.59633600;2023-02-23T08:08:09;94753.47;;;9.64;100.00
2000;BME280;1001;48.87406500;9.59633600;2023-02-23T08:10:36;94760.41;;;9.58;100.00
2000;BME280;1001;48.87406500;9.59633600;2023-02-23T08:13:03;94760.06;;;9.54;100.00
2000;BME280;1001;48.87406500;9.59633600;2023-02-23T08:15:30;94759.81;;;9.56;100.00
2000;BME280;1001;48.87406500;9.59633600;2023-02-23T08:17:58;94764.59;;;9.59;100.00
2000;BME280;1001;48.87406500;9.59633600;2023-02-23T08:20:25;94771.59;;;9.70;100.00
2000;BME280;1001;48.87406500;9.59633600;2023-02-23T08:22:52;94764.13;;;9.62;100.00
2000;BME280;1001;48.87406500;9.59633600;2023-02-23T08:25:19;94764.25;;;9.67;100.00
2000;BME280;1001;48.87406500;9.59633600;2023-02-23T08:27:46;94775.25;;;9.69;100.00
2000;BME280;1001;48.87406500;9.59633600;2023-02-23T08:30:17;94772.19;;;9.72;100.00
2000;BME280;1001;48.87406500;9.59633600;2023-02-23T08:32:44;94766.50;;;9.64;100.00
2000;BME280;1001;48.87406500;9.59633600;2023-02-23T08:35:12;94763.66;;;9.77;100.00
2000;BME280;1001;48.87406500;9.59633600;2023-02-23T08:37:39;94776.31;;;9.85;100.00
2000;BME280;1001;48.87406500;9.59633600;2023-02-23T08:40:09;94763.47;;;9.95;100.00
2000;BME280;1001;48.87406500;9.59633600;2023-02-23T08:42:36;94770.47;;;10.06;100.00
2000;BME280;1001;48.87406500;9.59633600;2023-02-23T08:45:03;94773.78;;;10.30;100.00
2000;BME280;1001;48.87406500;9.59633600;2023-02-23T08:47:30;94771.50;;;10.16;100.00
2000;BME280;1001;48.87406500;9.59633600;2023-02-23T08:49:58;94775.13;;;10.15;100.00
2000;BME280;1001;48.87406500;9.59633600;2023-02-23T08:52:27;94776.56;;;10.23;100.00
2000;BME280;1001;48.87406500;9.59633600;2023-02-23T08:54:53;94767.75;;;10.12;100.00
2000;BME280;1001;48.87406500;9.59633600;2023-02-23T08:57:21;94775.13;;;10.15;100.00
2000;BME280;1001;48.87406500;9.59633600;2023-02-23T08:59:47;94782.66;;;10.00;100.00
2000;BME280;1001;48.87406500;9.59633600;2023-02-23T09:02:14;94779.03;;;9.90;100.00
2000;BME280;1001;48.87406500;9.59633600;2023-02-23T09:04:41;94788.03;;;9.82;100.00
2000;BME280;1001;48.87406500;9.59633600;2023-02-23T09:07:11;94783.50;;;9.78;100.00
2000;BME280;1001;48.87406500;9.59633600;2023-02-23T09:09:40;94780.78;;;9.84;100.00
2000;BME280;1001;48.87406500;9.59633600;2023-02-23T09:12:07;94784.97;;;9.85;100.00
2000;BME280;1001;48.87406500;9.59633600;2023-02-23T09:14:33;94784.06;;;9.91;100.00
2000;BME280;1001;48.87406500;9.59633600;2023-02-23T09:17:01;94782.81;;;10.10;100.00
2000;BME280;1001;48.87406500;9.59633600;2023-02-23T09:19:27;94787.06;;;10.11;100.00
2000;BME280;1001;48.87406500;9.59633600;2023-02-23T09:21:54;94789.34;;;10.08;100.00
2000;BME280;1001;48.87406500;9.59633600;2023-02-23T09:24:21;94790.34;;;10.18;100.00
2000;BME280;1001;48.87406500;9.59633600;2023-02-23T09:26:48;94782.94;;;10.44;100.00
2000;BME280;1001;48.87406500;9.59633600;2023-02-23T09:29:17;94786.53;;;10.71;100.00
2000;BME280;1001;48.87406500;9.59633600;2023-02-23T09:31:44;94784.66;;;11.00;100.00
2000;BME280;1001;48.87406500;9.59633600;2023-02-23T09:34:10;94789.38;;;11.19;100.00
2000;BME280;1001;48.87406500;9.59633600;2023-02-23T09:36:37;94795.16;;;11.38;100.00
2000;BME280;1001;48.87406500;9.59633600;2023-02-23T09:39:04;94797.59;;;11.44;100.00
2000;BME280;1001;48.87406500;9.59633600;2023-02-23T09:42:02;94793.16;;;11.45;99.50
2000;BME280;1001;48.87406500;9.59633600;2023-02-23T09:44:43;94789.88;;;11.71;98.95
2000;BME280;1001;48.87406500;9.59633600;2023-02-23T09:47:29;94794.41;;;11.76;97.13
2000;BME280;1001;48.87406500;9.59633600;2023-02-23T09:49:58;94797.00;;;11.97;97.27
2000;BME280;1001;48.87406500;9.59633600;2023-02-23T09:52:35;94792.66;;;11.86;97.10
2000;BME280;1001;48.87406500;9.59633600;2023-02-23T09:55:04;94797.13;;;11.86;96.63
2000;BME280;1001;48.87406500;9.59633600;2023-02-23T09:57:35;94804.22;;;11.85;96.36
2000;BME280;1001;48.87406500;9.59633600;2023-02-23T10:00:10;94798.16;;;11.85;96.65
2000;BME280;1001;48.87406500;9.59633600;2023-02-23T10:02:51;94803.47;;;11.90;96.54
2000;BME280;1001;48.87406500;9.59633600;2023-02-23T10:05:22;94800.91;;;11.73;97.18
2000;BME280;1001;48.87406500;9.59633600;2023-02-23T10:07:51;94801.63;;;11.69;95.90
2000;BME280;1001;48.87406500;9.59633600;2023-02-23T10:10:25;94796.41;;;11.52;96.13
2000;BME280;1001;48.87406500;9.59633600;2023-02-23T10:13:02;94801.81;;;11.67;97.07
2000;BME280;1001;48.87406500;9.59633600;2023-02-23T10:15:35;94796.44;;;11.74;96.40
2000;BME280;1001;48.87406500;9.59633600;2023-02-23T10:18:13;94795.22;;;11.81;98.12
2000;BME280;1001;48.87406500;9.59633600;2023-02-23T10:20:49;94798.94;;;12.07;95.26
2000;BME280;1001;48.87406500;9.59633600;2023-02-23T10:23:25;94800.41;;;12.19;94.97
2000;BME280;1001;48.87406500;9.59633600;2023-02-23T10:25:56;94802.75;;;12.43;92.86
2000;BME280;1001;48.87406500;9.59633600;2023-02-23T10:28:27;94787.75;;;12.65;92.13
2000;BME280;1001;48.87406500;9.59633600;2023-02-23T10:30:56;94803.44;;;12.86;90.96
2000;BME280;1001;48.87406500;9.59633600;2023-02-23T10:33:27;94802.59;;;12.81;89.15
2000;BME280;1001;48.87406500;9.59633600;2023-02-23T10:36:08;94802.63;;;12.86;89.21
2000;BME280;1001;48.87406500;9.59633600;2023-02-23T10:38:38;94801.66;;;12.97;91.43
2000;BME280;1001;48.87406500;9.59633600;2023-02-23T10:41:05;94801.94;;;13.27;89.38
2000;BME280;1001;48.87406500;9.59633600;2023-02-23T10:43:34;94798.94;;;13.14;87.11
2000;BME280;1001;48.87406500;9.59633600;2023-02-23T10:46:01;94802.09;;;13.11;88.11
2000;BME280;1001;48.87406500;9.59633600;2023-02-23T10:48:33;94805.19;;;13.08;88.75
2000;BME280;1001;48.87406500;9.59633600;2023-02-23T10:51:03;94797.75;;;12.68;88.11
2000;BME280;1001;48.87406500;9.59633600;2023-02-23T10:53:31;94802.50;;;12.44;89.79
2000;BME280;1001;48.87406500;9.59633600;2023-02-23T10:56:05;94802.41;;;12.34;92.06
2000;BME280;1001;48.87406500;9.59633600;2023-02-23T10:58:41;94797.13;;;12.56;92.00
2000;BME280;1001;48.87406500;9.59633600;2023-02-23T11:01:09;94791.75;;;12.72;89.01
2000;BME280;1001;48.87406500;9.59633600;2023-02-23T11:03:39;94795.66;;;13.02;89.52
2000;BME280;1001;48.87406500;9.59633600;2023-02-23T11:06:26;94801.38;;;13.25;86.52
2000;BME280;1001;48.87406500;9.59633600;2023-02-23T11:08:53;94800.63;;;13.25;85.78
2000;BME280;1001;48.87406500;9.59633600;2023-02-23T11:11:23;94798.44;;;13.17;86.48
2000;BME280;1001;48.87406500;9.59633600;2023-02-23T11:13:55;94802.03;;;13.42;86.95
2000;BME280;1001;48.87406500;9.59633600;2023-02-23T11:16:24;94803.63;;;13.43;83.88
2000;BME280;1001;48.87406500;9.59633600;2023-02-23T11:18:53;94796.16;;;13.67;85.58
2000;BME280;1001;48.87406500;9.59633600;2023-02-23T11:21:24;94797.38;;;13.54;83.15
2000;BME280;1001;48.87406500;9.59633600;2023-02-23T11:23:55;94791.28;;;13.49;84.52
2000;BME280;1001;48.87406500;9.59633600;2023-02-23T11:26:28;94795.22;;;13.41;87.02
2000;BME280;1001;48.87406500;9.59633600;2023-02-23T11:29:00;94788.81;;;13.32;86.48
2000;BME280;1001;48.87406500;9.59633600;2023-02-23T11:31:31;94788.00;;;13.27;85.80
2000;BME280;1001;48.87406500;9.59633600;2023-02-23T11:34:00;94785.63;;;13.25;85.92
2000;BME280;1001;48.87406500;9.59633600;2023-02-23T11:36:29;94794.53;;;13.19;87.44
2000;BME280;1001;48.87406500;9.59633600;2023-02-23T11:39:03;94788.06;;;13.32;87.26
2000;BME280;1001;48.87406500;9.59633600;2023-02-23T11:41:31;94775.00;;;13.47;85.59
2000;BME280;1001;48.87406500;9.59633600;2023-02-23T11:44:01;94777.50;;;13.27;86.37
2000;BME280;1001;48.87406500;9.59633600;2023-02-23T11:46:30;94780.63;;;13.24;84.81
2000;BME280;1001;48.87406500;9.59633600;2023-02-23T11:49:02;94769.41;;;12.96;86.92
2000;BME280;1001;48.87406500;9.59633600;2023-02-23T11:51:31;94768.28;;;12.92;88.97
2000;BME280;1001;48.87406500;9.59633600;2023-02-23T11:53:58;94770.47;;;13.01;86.80
2000;BME280;1001;48.87406500;9.59633600;2023-02-23T11:56:26;94769.97;;;13.04;86.11
2000;BME280;1001;48.87406500;9.59633600;2023-02-23T11:58:56;94765.97;;;12.96;86.07
2000;BME280;1001;48.87406500;9.59633600;2023-02-23T12:01:37;94771.53;;;13.05;86.06
2000;BME280;1001;48.87406500;9.59633600;2023-02-23T12:04:10;94766.06;;;13.06;84.34
2000;BME280;1001;48.87406500;9.59633600;2023-02-23T12:06:48;94753.94;;;13.00;85.05
2000;BME280;1001;48.87406500;9.59633600;2023-02-23T12:09:19;94759.06;;;12.85;86.42
2000;BME280;1001;48.87406500;9.59633600;2023-02-23T12:11:50;94759.19;;;13.00;84.82
2000;BME280;1001;48.87406500;9.59633600;2023-02-23T12:14:27;94756.50;;;13.27;83.09
2000;BME280;1001;48.87406500;9.59633600;2023-02-23T12:17:01;94757.88;;;13.34;82.85
2000;BME280;1001;48.87406500;9.59633600;2023-02-23T12:19:33;94768.38;;;13.34;84.33
2000;BME280;1001;48.87406500;9.59633600;2023-02-23T12:22:05;94761.41;;;13.55;82.90